Terminal Aerodrome Forecast
Issued by NWS Wilmington, NC

Home | Current Version | Previous Version | Text Only | Print | Product List | Glossary On
Versions: 1 2 3 4 5 6 7 8 9 10 11 12 13 14 15 16 17 18 19 20
000
FTUS42 KILM 240000 CCA
TAFILM
TAF COR
KILM 240022Z 2400/2424 36012G19KT 6SM -RA SCT010 BKN035 OVC050
     FM241000 01017G23KT 5SM -RA BR SCT007 OVC015
     FM241200 02010G20KT P6SM -RA BKN008 OVC020
     FM241900 01008KT P6SM VCSH BKN012 OVC020=

USA.gov is the U.S. government's official web portal to all federal, state and local government web resources and services.